sensor_id;sensor_type;location;lat;lon;timestamp;temperature;humidity
28171;DHT22;15458;53.346;-1.688;2023-07-02T00:00:28;13.60;99.90
28171;DHT22;15458;53.346;-1.688;2023-07-02T00:02:54;13.50;99.90
28171;DHT22;15458;53.346;-1.688;2023-07-02T00:05:20;13.50;99.90
28171;DHT22;15458;53.346;-1.688;2023-07-02T00:07:45;13.50;99.90
28171;DHT22;15458;53.346;-1.688;2023-07-02T00:10:11;13.50;99.90
28171;DHT22;15458;53.346;-1.688;2023-07-02T00:12:37;13.50;99.90
28171;DHT22;15458;53.346;-1.688;2023-07-02T00:15:03;13.50;99.90
28171;DHT22;15458;53.346;-1.688;2023-07-02T00:17:29;13.50;99.90
28171;DHT22;15458;53.346;-1.688;2023-07-02T00:19:55;13.50;99.90
28171;DHT22;15458;53.346;-1.688;2023-07-02T00:22:20;13.50;99.90
28171;DHT22;15458;53.346;-1.688;2023-07-02T00:24:46;13.50;99.90
28171;DHT22;15458;53.346;-1.688;2023-07-02T00:27:12;13.50;99.90
28171;DHT22;15458;53.346;-1.688;2023-07-02T00:29:38;13.50;99.90
28171;DHT22;15458;53.346;-1.688;2023-07-02T00:32:04;13.50;99.90
28171;DHT22;15458;53.346;-1.688;2023-07-02T00:34:30;13.40;99.90
28171;DHT22;15458;53.346;-1.688;2023-07-02T00:36:55;13.40;99.90
28171;DHT22;15458;53.346;-1.688;2023-07-02T00:39:21;13.40;99.90
28171;DHT22;15458;53.346;-1.688;2023-07-02T00:41:47;13.40;99.90
28171;DHT22;15458;53.346;-1.688;2023-07-02T00:44:13;13.40;99.90
28171;DHT22;15458;53.346;-1.688;2023-07-02T00:46:39;13.40;99.90
28171;DHT22;15458;53.346;-1.688;2023-07-02T00:49:05;13.40;99.90
28171;DHT22;15458;53.346;-1.688;2023-07-02T00:51:31;13.40;99.90
28171;DHT22;15458;53.346;-1.688;2023-07-02T00:53:57;13.40;99.90
28171;DHT22;15458;53.346;-1.688;2023-07-02T00:56:25;13.30;99.90
28171;DHT22;15458;53.346;-1.688;2023-07-02T00:58:54;13.30;99.90
28171;DHT22;15458;53.346;-1.688;2023-07-02T01:01:25;13.30;99.90
28171;DHT22;15458;53.346;-1.688;2023-07-02T01:03:58;13.20;99.90
28171;DHT22;15458;53.346;-1.688;2023-07-02T01:06:35;13.20;99.90
28171;DHT22;15458;53.346;-1.688;2023-07-02T01:09:05;13.20;99.90
28171;DHT22;15458;53.346;-1.688;2023-07-02T01:11:34;13.20;99.90
28171;DHT22;15458;53.346;-1.688;2023-07-02T01:14:04;13.20;99.90
28171;DHT22;15458;53.346;-1.688;2023-07-02T01:16:31;13.20;99.90
28171;DHT22;15458;53.346;-1.688;2023-07-02T01:18:59;13.20;99.90
28171;DHT22;15458;53.346;-1.688;2023-07-02T01:21:28;13.20;99.90
28171;DHT22;15458;53.346;-1.688;2023-07-02T01:23:54;13.20;99.90
28171;DHT22;15458;53.346;-1.688;2023-07-02T01:26:20;13.20;99.90
28171;DHT22;15458;53.346;-1.688;2023-07-02T01:28:46;13.20;99.90
28171;DHT22;15458;53.346;-1.688;2023-07-02T01:31:12;13.20;99.90
28171;DHT22;15458;53.346;-1.688;2023-07-02T01:33:37;13.20;99.90
28171;DHT22;15458;53.346;-1.688;2023-07-02T01:36:03;13.20;99.90
28171;DHT22;15458;53.346;-1.688;2023-07-02T01:38:29;13.20;99.90
28171;DHT22;15458;53.346;-1.688;2023-07-02T01:40:54;13.10;99.90
28171;DHT22;15458;53.346;-1.688;2023-07-02T01:43:20;13.20;99.90
28171;DHT22;15458;53.346;-1.688;2023-07-02T01:45:46;13.10;99.90
28171;DHT22;15458;53.346;-1.688;2023-07-02T01:48:12;13.10;99.90
28171;DHT22;15458;53.346;-1.688;2023-07-02T01:50:37;13.10;99.90
28171;DHT22;15458;53.346;-1.688;2023-07-02T01:53:03;13.10;99.90
28171;DHT22;15458;53.346;-1.688;2023-07-02T01:55:28;13.10;99.90
28171;DHT22;15458;53.346;-1.688;2023-07-02T01:57:54;13.10;99.90
28171;DHT22;15458;53.346;-1.688;2023-07-02T02:00:20;13.10;99.90
28171;DHT22;15458;53.346;-1.688;2023-07-02T02:02:45;13.10;99.90
28171;DHT22;15458;53.346;-1.688;2023-07-02T02:05:11;13.10;99.90
28171;DHT22;15458;53.346;-1.688;2023-07-02T02:07:36;13.10;99.90
28171;DHT22;15458;53.346;-1.688;2023-07-02T02:10:03;13.10;99.90
28171;DHT22;15458;53.346;-1.688;2023-07-02T02:12:29;13.10;99.90
28171;DHT22;15458;53.346;-1.688;2023-07-02T02:14:55;13.10;99.90
28171;DHT22;15458;53.346;-1.688;2023-07-02T02:17:21;13.10;99.90
28171;DHT22;15458;53.346;-1.688;2023-07-02T02:19:49;13.00;99.90
28171;DHT22;15458;53.346;-1.688;2023-07-02T02:22:15;13.00;99.90
28171;DHT22;15458;53.346;-1.688;2023-07-02T02:24:42;13.00;99.90
28171;DHT22;15458;53.346;-1.688;2023-07-02T02:27:07;13.00;99.90
28171;DHT22;15458;53.346;-1.688;2023-07-02T02:29:34;13.00;99.90
28171;DHT22;15458;53.346;-1.688;2023-07-02T02:31:59;13.00;99.90
28171;DHT22;15458;53.346;-1.688;2023-07-02T02:34:25;13.00;99.90
28171;DHT22;15458;53.346;-1.688;2023-07-02T02:36:51;13.00;99.90
28171;DHT22;15458;53.346;-1.688;2023-07-02T02:39:16;12.90;99.90
28171;DHT22;15458;53.346;-1.688;2023-07-02T02:41:42;13.00;99.90
28171;DHT22;15458;53.346;-1.688;2023-07-02T02:44:08;13.00;99.90
28171;DHT22;15458;53.346;-1.688;2023-07-02T02:46:33;13.00;99.90
28171;DHT22;15458;53.346;-1.688;2023-07-02T02:48:59;13.00;99.90
28171;DHT22;15458;53.346;-1.688;2023-07-02T02:51:24;13.00;99.90
28171;DHT22;15458;53.346;-1.688;2023-07-02T02:53:50;13.00;99.90
28171;DHT22;15458;53.346;-1.688;2023-07-02T02:56:16;13.00;99.90
28171;DHT22;15458;53.346;-1.688;2023-07-02T02:58:41;13.00;99.90
28171;DHT22;15458;53.346;-1.688;2023-07-02T03:01:07;13.00;99.90
28171;DHT22;15458;53.346;-1.688;2023-07-02T03:03:40;12.90;99.90
28171;DHT22;15458;53.346;-1.688;2023-07-02T03:06:10;12.90;99.90
28171;DHT22;15458;53.346;-1.688;2023-07-02T03:08:36;12.90;99.90
28171;DHT22;15458;53.346;-1.688;2023-07-02T03:11:02;12.90;99.90
28171;DHT22;15458;53.346;-1.688;2023-07-02T03:13:27;12.90;99.90
28171;DHT22;15458;53.346;-1.688;2023-07-02T03:15:53;12.90;99.90
28171;DHT22;15458;53.346;-1.688;2023-07-02T03:18:19;12.90;99.90
28171;DHT22;15458;53.346;-1.688;2023-07-02T03:20:44;12.80;99.90
28171;DHT22;15458;53.346;-1.688;2023-07-02T03:23:10;12.80;99.90
28171;DHT22;15458;53.346;-1.688;2023-07-02T03:25:35;12.80;99.90
28171;DHT22;15458;53.346;-1.688;2023-07-02T03:28:01;12.90;99.90
28171;DHT22;15458;53.346;-1.688;2023-07-02T03:30:27;12.90;99.90
28171;DHT22;15458;53.346;-1.688;2023-07-02T03:32:52;12.90;99.90
28171;DHT22;15458;53.346;-1.688;2023-07-02T03:35:18;12.90;99.90
28171;DHT22;15458;53.346;-1.688;2023-07-02T03:37:44;12.90;99.90
28171;DHT22;15458;53.346;-1.688;2023-07-02T03:40:11;12.90;99.90
28171;DHT22;15458;53.346;-1.688;2023-07-02T03:42:37;12.90;99.90
28171;DHT22;15458;53.346;-1.688;2023-07-02T03:45:02;12.90;99.90
28171;DHT22;15458;53.346;-1.688;2023-07-02T03:47:29;12.90;99.90
28171;DHT22;15458;53.346;-1.688;2023-07-02T03:49:54;12.80;99.90
28171;DHT22;15458;53.346;-1.688;2023-07-02T03:52:20;12.80;99.90
28171;DHT22;15458;53.346;-1.688;2023-07-02T03:54:46;12.80;99.90
28171;DHT22;15458;53.346;-1.688;2023-07-02T03:57:11;12.80;99.90
28171;DHT22;15458;53.346;-1.688;2023-07-02T03:59:37;12.70;99.90
28171;DHT22;15458;53.346;-1.688;2023-07-02T04:02:04;12.70;99.90
28171;DHT22;15458;53.346;-1.688;2023-07-02T04:04:29;12.70;99.90
28171;DHT22;15458;53.346;-1.688;2023-07-02T04:06:55;12.80;99.90
28171;DHT22;15458;53.346;-1.688;2023-07-02T04:09:20;12.80;99.90
28171;DHT22;15458;53.346;-1.688;2023-07-02T04:11:46;12.80;99.90
28171;DHT22;15458;53.346;-1.688;2023-07-02T04:14:12;12.80;99.90
28171;DHT22;15458;53.346;-1.688;2023-07-02T04:16:37;12.80;99.90
28171;DHT22;15458;53.346;-1.688;2023-07-02T04:19:03;12.70;99.90
28171;DHT22;15458;53.346;-1.688;2023-07-02T04:21:29;12.80;99.90
28171;DHT22;15458;53.346;-1.688;2023-07-02T04:23:54;12.80;99.90
28171;DHT22;15458;53.346;-1.688;2023-07-02T04:26:20;12.80;99.90
28171;DHT22;15458;53.346;-1.688;2023-07-02T04:28:46;12.80;99.90
28171;DHT22;15458;53.346;-1.688;2023-07-02T04:31:11;12.80;99.90
28171;DHT22;15458;53.346;-1.688;2023-07-02T04:33:37;12.80;99.90
28171;DHT22;15458;53.346;-1.688;2023-07-02T04:36:03;12.80;99.90
28171;DHT22;15458;53.346;-1.688;2023-07-02T04:38:29;12.90;99.90
28171;DHT22;15458;53.346;-1.688;2023-07-02T04:40:55;12.90;99.90
28171;DHT22;15458;53.346;-1.688;2023-07-02T04:43:23;12.90;99.90
28171;DHT22;15458;53.346;-1.688;2023-07-02T04:45:49;12.90;99.90
28171;DHT22;15458;53.346;-1.688;2023-07-02T04:48:14;12.90;99.90
28171;DHT22;15458;53.346;-1.688;2023-07-02T04:50:41;12.90;99.90
28171;DHT22;15458;53.346;-1.688;2023-07-02T04:53:08;12.90;99.90
28171;DHT22;15458;53.346;-1.688;2023-07-02T04:55:34;12.90;99.90
28171;DHT22;15458;53.346;-1.688;2023-07-02T04:57:59;12.90;99.90
28171;DHT22;15458;53.346;-1.688;2023-07-02T05:00:25;12.90;99.90
28171;DHT22;15458;53.346;-1.688;2023-07-02T05:02:51;12.90;99.90
28171;DHT22;15458;53.346;-1.688;2023-07-02T05:05:17;12.90;99.90
28171;DHT22;15458;53.346;-1.688;2023-07-02T05:07:43;13.00;99.90
28171;DHT22;15458;53.346;-1.688;2023-07-02T05:10:09;13.00;99.90
28171;DHT22;15458;53.346;-1.688;2023-07-02T05:12:35;13.00;99.90
28171;DHT22;15458;53.346;-1.688;2023-07-02T05:15:00;13.00;99.90
28171;DHT22;15458;53.346;-1.688;2023-07-02T05:17:26;13.00;99.90
28171;DHT22;15458;53.346;-1.688;2023-07-02T05:19:52;13.00;99.90
28171;DHT22;15458;53.346;-1.688;2023-07-02T05:22:18;13.00;99.90
28171;DHT22;15458;53.346;-1.688;2023-07-02T05:24:44;13.00;99.90
28171;DHT22;15458;53.346;-1.688;2023-07-02T05:27:11;13.00;99.90
28171;DHT22;15458;53.346;-1.688;2023-07-02T05:29:37;13.00;99.90
28171;DHT22;15458;53.346;-1.688;2023-07-02T05:32:03;13.00;99.90
28171;DHT22;15458;53.346;-1.688;2023-07-02T05:34:29;12.90;99.90
28171;DHT22;15458;53.346;-1.688;2023-07-02T05:36:54;12.90;99.90
28171;DHT22;15458;53.346;-1.688;2023-07-02T05:39:20;12.80;99.90
28171;DHT22;15458;53.346;-1.688;2023-07-02T05:41:47;12.80;99.90
28171;DHT22;15458;53.346;-1.688;2023-07-02T05:44:12;12.70;99.90
28171;DHT22;15458;53.346;-1.688;2023-07-02T05:46:38;12.70;99.90
28171;DHT22;15458;53.346;-1.688;2023-07-02T05:49:05;12.70;99.90
28171;DHT22;15458;53.346;-1.688;2023-07-02T05:51:31;12.60;99.90
28171;DHT22;15458;53.346;-1.688;2023-07-02T05:53:57;12.60;99.90
28171;DHT22;15458;53.346;-1.688;2023-07-02T05:56:23;12.50;99.90
28171;DHT22;15458;53.346;-1.688;2023-07-02T05:58:48;12.50;99.90
28171;DHT22;15458;53.346;-1.688;2023-07-02T06:01:15;12.50;99.90
28171;DHT22;15458;53.346;-1.688;2023-07-02T06:03:41;12.50;99.90
28171;DHT22;15458;53.346;-1.688;2023-07-02T06:06:08;12.50;99.90
28171;DHT22;15458;53.346;-1.688;2023-07-02T06:08:34;12.50;99.90
28171;DHT22;15458;53.346;-1.688;2023-07-02T06:10:59;12.50;99.90
28171;DHT22;15458;53.346;-1.688;2023-07-02T06:13:25;12.50;99.90
28171;DHT22;15458;53.346;-1.688;2023-07-02T06:15:51;12.50;99.90
28171;DHT22;15458;53.346;-1.688;2023-07-02T06:18:17;12.60;99.90
28171;DHT22;15458;53.346;-1.688;2023-07-02T06:20:43;12.60;99.90
28171;DHT22;15458;53.346;-1.688;2023-07-02T06:23:08;12.60;99.90
28171;DHT22;15458;53.346;-1.688;2023-07-02T06:25:34;12.60;99.90
28171;DHT22;15458;53.346;-1.688;2023-07-02T06:28:00;12.60;99.90
28171;DHT22;15458;53.346;-1.688;2023-07-02T06:30:26;12.60;99.90
28171;DHT22;15458;53.346;-1.688;2023-07-02T06:32:53;12.50;99.90
28171;DHT22;15458;53.346;-1.688;2023-07-02T06:35:19;12.50;99.90
28171;DHT22;15458;53.346;-1.688;2023-07-02T06:37:45;12.40;99.90
28171;DHT22;15458;53.346;-1.688;2023-07-02T06:40:11;12.50;99.90
28171;DHT22;15458;53.346;-1.688;2023-07-02T06:42:37;12.50;99.90
28171;DHT22;15458;53.346;-1.688;2023-07-02T06:45:03;12.50;99.90
28171;DHT22;15458;53.346;-1.688;2023-07-02T06:47:29;12.50;99.90
28171;DHT22;15458;53.346;-1.688;2023-07-02T06:49:54;12.50;99.90
28171;DHT22;15458;53.346;-1.688;2023-07-02T06:52:20;12.50;99.90
28171;DHT22;15458;53.346;-1.688;2023-07-02T06:54:46;12.60;99.90
28171;DHT22;15458;53.346;-1.688;2023-07-02T06:57:13;12.60;99.90
28171;DHT22;15458;53.346;-1.688;2023-07-02T06:59:38;12.60;99.90
28171;DHT22;15458;53.346;-1.688;2023-07-02T07:02:04;12.60;99.90
28171;DHT22;15458;53.346;-1.688;2023-07-02T07:04:30;12.70;99.90
28171;DHT22;15458;53.346;-1.688;2023-07-02T07:07:00;12.80;99.90
28171;DHT22;15458;53.346;-1.688;2023-07-02T07:09:29;12.90;99.90
28171;DHT22;15458;53.346;-1.688;2023-07-02T07:11:55;12.90;99.90
28171;DHT22;15458;53.346;-1.688;2023-07-02T07:14:20;12.90;99.90
28171;DHT22;15458;53.346;-1.688;2023-07-02T07:16:46;13.00;99.90
28171;DHT22;15458;53.346;-1.688;2023-07-02T07:19:12;12.90;99.90
28171;DHT22;15458;53.346;-1.688;2023-07-02T07:21:38;12.90;99.90
28171;DHT22;15458;53.346;-1.688;2023-07-02T07:24:04;12.80;99.90
28171;DHT22;15458;53.346;-1.688;2023-07-02T07:26:29;12.80;99.90
28171;DHT22;15458;53.346;-1.688;2023-07-02T07:28:55;12.70;99.90
28171;DHT22;15458;53.346;-1.688;2023-07-02T07:31:21;12.70;99.90
28171;DHT22;15458;53.346;-1.688;2023-07-02T07:33:47;12.70;99.90
28171;DHT22;15458;53.346;-1.688;2023-07-02T07:36:12;12.70;99.90
28171;DHT22;15458;53.346;-1.688;2023-07-02T07:38:39;12.70;99.90
28171;DHT22;15458;53.346;-1.688;2023-07-02T07:41:05;12.70;99.90
28171;DHT22;15458;53.346;-1.688;2023-07-02T07:43:30;12.60;99.90
28171;DHT22;15458;53.346;-1.688;2023-07-02T07:45:56;12.70;99.90
28171;DHT22;15458;53.346;-1.688;2023-07-02T07:48:22;12.70;99.90
28171;DHT22;15458;53.346;-1.688;2023-07-02T07:50:47;12.70;99.90
28171;DHT22;15458;53.346;-1.688;2023-07-02T07:53:14;12.70;99.90
28171;DHT22;15458;53.346;-1.688;2023-07-02T07:55:39;12.70;99.90
28171;DHT22;15458;53.346;-1.688;2023-07-02T07:58:05;12.80;99.90
28171;DHT22;15458;53.346;-1.688;2023-07-02T08:00:31;12.80;99.90
28171;DHT22;15458;53.346;-1.688;2023-07-02T08:02:56;12.80;99.90
28171;DHT22;15458;53.346;-1.688;2023-07-02T08:05:22;12.90;99.90
28171;DHT22;15458;53.346;-1.688;2023-07-02T08:07:48;13.10;99.90
28171;DHT22;15458;53.346;-1.688;2023-07-02T08:10:14;13.20;99.90
28171;DHT22;15458;53.346;-1.688;2023-07-02T08:12:39;13.30;99.90
28171;DHT22;15458;53.346;-1.688;2023-07-02T08:15:06;13.40;99.90
28171;DHT22;15458;53.346;-1.688;2023-07-02T08:17:31;13.50;99.90
28171;DHT22;15458;53.346;-1.688;2023-07-02T08:19:57;13.50;99.90
28171;DHT22;15458;53.346;-1.688;2023-07-02T08:22:23;13.50;99.90
28171;DHT22;15458;53.346;-1.688;2023-07-02T08:24:49;13.50;99.90
28171;DHT22;15458;53.346;-1.688;2023-07-02T08:27:16;13.50;99.90
28171;DHT22;15458;53.346;-1.688;2023-07-02T08:29:47;13.40;99.90
28171;DHT22;15458;53.346;-1.688;2023-07-02T08:32:13;13.40;99.90
28171;DHT22;15458;53.346;-1.688;2023-07-02T08:34:39;13.50;99.90
28171;DHT22;15458;53.346;-1.688;2023-07-02T08:37:04;13.50;99.90
28171;DHT22;15458;53.346;-1.688;2023-07-02T08:39:30;13.60;99.90
28171;DHT22;15458;53.346;-1.688;2023-07-02T08:41:56;13.60;99.90
28171;DHT22;15458;53.346;-1.688;2023-07-02T08:44:22;13.70;99.90
28171;DHT22;15458;53.346;-1.688;2023-07-02T08:46:48;13.70;99.90
28171;DHT22;15458;53.346;-1.688;2023-07-02T08:49:18;13.70;99.90
28171;DHT22;15458;53.346;-1.688;2023-07-02T08:51:45;13.60;99.90
28171;DHT22;15458;53.346;-1.688;2023-07-02T08:54:11;13.60;99.90
28171;DHT22;15458;53.346;-1.688;2023-07-02T08:56:38;13.50;99.90
28171;DHT22;15458;53.346;-1.688;2023-07-02T08:59:07;13.50;99.90
28171;DHT22;15458;53.346;-1.688;2023-07-02T09:01:32;13.50;99.90
28171;DHT22;15458;53.346;-1.688;2023-07-02T09:03:59;13.70;99.90
28171;DHT22;15458;53.346;-1.688;2023-07-02T09:06:27;13.80;99.90
28171;DHT22;15458;53.346;-1.688;2023-07-02T09:08:53;13.90;99.90
28171;DHT22;15458;53.346;-1.688;2023-07-02T09:11:18;14.10;99.90
28171;DHT22;15458;53.346;-1.688;2023-07-02T09:16:33;14.10;99.90
28171;DHT22;15458;53.346;-1.688;2023-07-02T09:19:08;14.10;99.90
28171;DHT22;15458;53.346;-1.688;2023-07-02T09:24:13;14.20;99.90
28171;DHT22;15458;53.346;-1.688;2023-07-02T09:26:52;14.40;99.90
28171;DHT22;15458;53.346;-1.688;2023-07-02T09:29:26;14.60;99.90
28171;DHT22;15458;53.346;-1.688;2023-07-02T09:31:56;14.80;99.90
28171;DHT22;15458;53.346;-1.688;2023-07-02T09:34:32;15.10;99.90
28171;DHT22;15458;53.346;-1.688;2023-07-02T09:36:59;15.40;99.90
28171;DHT22;15458;53.346;-1.688;2023-07-02T09:39:30;15.60;99.90
28171;DHT22;15458;53.346;-1.688;2023-07-02T09:42:02;15.70;99.90
28171;DHT22;15458;53.346;-1.688;2023-07-02T09:44:31;15.70;99.90
28171;DHT22;15458;53.346;-1.688;2023-07-02T09:47:04;15.60;99.90
28171;DHT22;15458;53.346;-1.688;2023-07-02T09:49:35;15.50;99.90
28171;DHT22;15458;53.346;-1.688;2023-07-02T09:52:07;15.40;99.90
28171;DHT22;15458;53.346;-1.688;2023-07-02T09:54:33;15.30;99.90
28171;DHT22;15458;53.346;-1.688;2023-07-02T09:56:59;15.20;99.90
28171;DHT22;15458;53.346;-1.688;2023-07-02T09:59:25;15.00;99.70
28171;DHT22;15458;53.346;-1.688;2023-07-02T10:01:51;14.90;99.50
28171;DHT22;15458;53.346;-1.688;2023-07-02T10:04:19;14.80;99.40
28171;DHT22;15458;53.346;-1.688;2023-07-02T10:06:52;14.70;98.70
28171;DHT22;15458;53.346;-1.688;2023-07-02T10:09:19;14.60;98.70
28171;DHT22;15458;53.346;-1.688;2023-07-02T10:11:45;14.50;98.60
28171;DHT22;15458;53.346;-1.688;2023-07-02T10:14:11;14.60;98.80
28171;DHT22;15458;53.346;-1.688;2023-07-02T10:16:54;14.70;98.70
28171;DHT22;15458;53.346;-1.688;2023-07-02T10:19:20;14.80;98.60
28171;DHT22;15458;53.346;-1.688;2023-07-02T10:21:46;14.90;98.90
28171;DHT22;15458;53.346;-1.688;2023-07-02T10:24:16;14.90;98.80
28171;DHT22;15458;53.346;-1.688;2023-07-02T10:26:53;15.00;98.90
28171;DHT22;15458;53.346;-1.688;2023-07-02T10:29:19;15.40;99.20
28171;DHT22;15458;53.346;-1.688;2023-07-02T10:31:50;15.70;98.60
28171;DHT22;15458;53.346;-1.688;2023-07-02T10:34:16;16.00;97.70
28171;DHT22;15458;53.346;-1.688;2023-07-02T10:36:56;16.20;96.70
28171;DHT22;15458;53.346;-1.688;2023-07-02T10:39:22;16.40;95.50
28171;DHT22;15458;53.346;-1.688;2023-07-02T10:41:48;16.40;94.10
28171;DHT22;15458;53.346;-1.688;2023-07-02T10:44:14;16.50;92.70
28171;DHT22;15458;53.346;-1.688;2023-07-02T10:49:10;16.50;91.90
28171;DHT22;15458;53.346;-1.688;2023-07-02T10:51:38;16.50;91.50
28171;DHT22;15458;53.346;-1.688;2023-07-02T10:54:04;16.40;91.00
28171;DHT22;15458;53.346;-1.688;2023-07-02T10:56:31;16.20;90.70
28171;DHT22;15458;53.346;-1.688;2023-07-02T10:58:57;16.10;90.60
28171;DHT22;15458;53.346;-1.688;2023-07-02T11:01:28;16.10;90.80
28171;DHT22;15458;53.346;-1.688;2023-07-02T11:03:57;16.00;90.70
28171;DHT22;15458;53.346;-1.688;2023-07-02T11:06:25;16.00;90.60
28171;DHT22;15458;53.346;-1.688;2023-07-02T11:08:51;15.90;90.60
28171;DHT22;15458;53.346;-1.688;2023-07-02T11:11:17;15.90;90.30
28171;DHT22;15458;53.346;-1.688;2023-07-02T11:13:47;15.80;90.60
28171;DHT22;15458;53.346;-1.688;2023-07-02T11:16:20;15.70;90.70
28171;DHT22;15458;53.346;-1.688;2023-07-02T11:18:51;15.60;90.60
28171;DHT22;15458;53.346;-1.688;2023-07-02T11:21:16;15.60;90.80
28171;DHT22;15458;53.346;-1.688;2023-07-02T11:23:42;15.60;90.90
28171;DHT22;15458;53.346;-1.688;2023-07-02T11:26:08;15.70;90.90
28171;DHT22;15458;53.346;-1.688;2023-07-02T11:28:33;15.80;90.80
28171;DHT22;15458;53.346;-1.688;2023-07-02T11:31:02;15.90;90.40
28171;DHT22;15458;53.346;-1.688;2023-07-02T11:33:37;15.90;90.40
28171;DHT22;15458;53.346;-1.688;2023-07-02T11:36:07;15.90;89.00
28171;DHT22;15458;53.346;-1.688;2023-07-02T11:38:34;16.00;88.70
28171;DHT22;15458;53.346;-1.688;2023-07-02T11:41:03;16.10;88.00
28171;DHT22;15458;53.346;-1.688;2023-07-02T11:43:29;16.20;87.80
28171;DHT22;15458;53.346;-1.688;2023-07-02T11:45:54;16.30;86.80
28171;DHT22;15458;53.346;-1.688;2023-07-02T11:48:20;16.30;85.80
28171;DHT22;15458;53.346;-1.688;2023-07-02T11:50:45;16.20;85.60
28171;DHT22;15458;53.346;-1.688;2023-07-02T11:53:11;16.20;85.60
28171;DHT22;15458;53.346;-1.688;2023-07-02T11:55:37;16.10;85.90
28171;DHT22;15458;53.346;-1.688;2023-07-02T11:58:02;16.00;86.20
28171;DHT22;15458;53.346;-1.688;2023-07-02T12:00:28;15.90;86.60
28171;DHT22;15458;53.346;-1.688;2023-07-02T12:02:54;15.80;87.40
28171;DHT22;15458;53.346;-1.688;2023-07-02T12:05:20;15.80;88.20
28171;DHT22;15458;53.346;-1.688;2023-07-02T12:07:46;15.70;88.60
28171;DHT22;15458;53.346;-1.688;2023-07-02T12:10:14;15.60;89.20
28171;DHT22;15458;53.346;-1.688;2023-07-02T12:12:39;15.60;90.00
28171;DHT22;15458;53.346;-1.688;2023-07-02T12:15:05;15.80;90.20
28171;DHT22;15458;53.346;-1.688;2023-07-02T12:17:31;16.00;90.40
28171;DHT22;15458;53.346;-1.688;2023-07-02T12:19:57;16.20;90.20
28171;DHT22;15458;53.346;-1.688;2023-07-02T12:22:23;16.40;89.50
28171;DHT22;15458;53.346;-1.688;2023-07-02T12:24:49;16.40;88.60
28171;DHT22;15458;53.346;-1.688;2023-07-02T12:27:21;16.40;87.60
28171;DHT22;15458;53.346;-1.688;2023-07-02T12:29:46;16.40;87.50
28171;DHT22;15458;53.346;-1.688;2023-07-02T12:32:14;16.40;86.90
28171;DHT22;15458;53.346;-1.688;2023-07-02T12:34:39;16.30;86.40
28171;DHT22;15458;53.346;-1.688;2023-07-02T12:37:05;16.30;86.20
28171;DHT22;15458;53.346;-1.688;2023-07-02T12:39:31;16.30;86.20
28171;DHT22;15458;53.346;-1.688;2023-07-02T12:41:57;16.40;86.20
28171;DHT22;15458;53.346;-1.688;2023-07-02T12:44:22;16.40;85.80
28171;DHT22;15458;53.346;-1.688;2023-07-02T12:46:48;16.40;85.00
28171;DHT22;15458;53.346;-1.688;2023-07-02T12:49:13;16.40;84.80
28171;DHT22;15458;53.346;-1.688;2023-07-02T12:51:39;16.50;84.00
28171;DHT22;15458;53.346;-1.688;2023-07-02T12:54:05;16.60;84.70
28171;DHT22;15458;53.346;-1.688;2023-07-02T12:56:31;16.80;84.00
28171;DHT22;15458;53.346;-1.688;2023-07-02T12:58:56;17.00;83.40
28171;DHT22;15458;53.346;-1.688;2023-07-02T13:01:22;17.20;83.20
28171;DHT22;15458;53.346;-1.688;2023-07-02T13:03:49;17.30;81.30
28171;DHT22;15458;53.346;-1.688;2023-07-02T13:06:15;17.50;80.50
28171;DHT22;15458;53.346;-1.688;2023-07-02T13:08:41;17.50;79.40
28171;DHT22;15458;53.346;-1.688;2023-07-02T13:11:07;17.50;79.40
28171;DHT22;15458;53.346;-1.688;2023-07-02T13:13:34;17.40;77.20
28171;DHT22;15458;53.346;-1.688;2023-07-02T13:16:02;17.40;77.40
28171;DHT22;15458;53.346;-1.688;2023-07-02T13:18:27;17.30;77.10
28171;DHT22;15458;53.346;-1.688;2023-07-02T13:20:53;17.30;76.30
28171;DHT22;15458;53.346;-1.688;2023-07-02T13:23:19;17.30;76.40
28171;DHT22;15458;53.346;-1.688;2023-07-02T13:25:44;17.30;76.30
28171;DHT22;15458;53.346;-1.688;2023-07-02T13:28:10;17.20;75.90
28171;DHT22;15458;53.346;-1.688;2023-07-02T13:30:36;17.20;75.50
28171;DHT22;15458;53.346;-1.688;2023-07-02T13:33:01;17.20;75.90
28171;DHT22;15458;53.346;-1.688;2023-07-02T13:35:27;17.20;75.90
28171;DHT22;15458;53.346;-1.688;2023-07-02T13:37:53;17.30;76.10
28171;DHT22;15458;53.346;-1.688;2023-07-02T13:40:19;17.40;76.30
28171;DHT22;15458;53.346;-1.688;2023-07-02T13:42:44;17.50;76.40
28171;DHT22;15458;53.346;-1.688;2023-07-02T13:45:10;17.60;76.50
28171;DHT22;15458;53.346;-1.688;2023-07-02T13:47:37;17.70;75.60
28171;DHT22;15458;53.346;-1.688;2023-07-02T13:50:03;17.70;75.70
28171;DHT22;15458;53.346;-1.688;2023-07-02T13:52:29;17.70;75.60
28171;DHT22;15458;53.346;-1.688;2023-07-02T13:54:55;17.60;75.40
28171;DHT22;15458;53.346;-1.688;2023-07-02T13:57:21;17.60;75.10
28171;DHT22;15458;53.346;-1.688;2023-07-02T13:59:47;17.50;75.00
28171;DHT22;15458;53.346;-1.688;2023-07-02T14:02:13;17.40;75.20
28171;DHT22;15458;53.346;-1.688;2023-07-02T14:04:38;17.30;75.40
28171;DHT22;15458;53.346;-1.688;2023-07-02T14:07:05;17.30;76.10
28171;DHT22;15458;53.346;-1.688;2023-07-02T14:09:31;17.50;76.80
28171;DHT22;15458;53.346;-1.688;2023-07-02T14:11:56;17.70;77.20
28171;DHT22;15458;53.346;-1.688;2023-07-02T14:14:22;17.80;76.90
28171;DHT22;15458;53.346;-1.688;2023-07-02T14:16:48;17.90;76.50
28171;DHT22;15458;53.346;-1.688;2023-07-02T14:19:13;18.00;76.20
28171;DHT22;15458;53.346;-1.688;2023-07-02T14:21:40;17.90;75.90
28171;DHT22;15458;53.346;-1.688;2023-07-02T14:24:06;17.90;75.80
28171;DHT22;15458;53.346;-1.688;2023-07-02T14:26:32;17.80;75.90
28171;DHT22;15458;53.346;-1.688;2023-07-02T14:28:57;17.70;76.10
28171;DHT22;15458;53.346;-1.688;2023-07-02T14:31:23;17.60;75.90
28171;DHT22;15458;53.346;-1.688;2023-07-02T14:33:49;17.60;76.10
28171;DHT22;15458;53.346;-1.688;2023-07-02T14:36:16;17.60;76.30
28171;DHT22;15458;53.346;-1.688;2023-07-02T14:38:43;17.60;76.20
28171;DHT22;15458;53.346;-1.688;2023-07-02T14:41:08;17.60;75.80
28171;DHT22;15458;53.346;-1.688;2023-07-02T14:43:34;17.70;75.80
28171;DHT22;15458;53.346;-1.688;2023-07-02T14:46:01;17.60;75.40
28171;DHT22;15458;53.346;-1.688;2023-07-02T14:48:27;17.60;75.30
28171;DHT22;15458;53.346;-1.688;2023-07-02T14:50:59;17.50;75.40
28171;DHT22;15458;53.346;-1.688;2023-07-02T14:53:26;17.50;75.80
28171;DHT22;15458;53.346;-1.688;2023-07-02T14:55:55;17.40;75.80
28171;DHT22;15458;53.346;-1.688;2023-07-02T14:58:21;17.40;76.00
28171;DHT22;15458;53.346;-1.688;2023-07-02T15:00:49;17.50;76.20
28171;DHT22;15458;53.346;-1.688;2023-07-02T15:03:15;17.50;75.00
28171;DHT22;15458;53.346;-1.688;2023-07-02T15:05:41;17.50;74.90
28171;DHT22;15458;53.346;-1.688;2023-07-02T15:08:08;17.60;75.00
28171;DHT22;15458;53.346;-1.688;2023-07-02T15:10:35;17.70;74.50
28171;DHT22;15458;53.346;-1.688;2023-07-02T15:13:03;17.70;74.30
28171;DHT22;15458;53.346;-1.688;2023-07-02T15:15:28;17.70;73.90
28171;DHT22;15458;53.346;-1.688;2023-07-02T15:17:54;17.70;73.70